sensor_id;sensor_type;location;lat;lon;timestamp;P1;P2;P0
55518;PMS5003;41724;51.176;-0.708;2023-04-24T00:00:54;27;25;
55518;PMS5003;41724;51.176;-0.708;2023-04-24T00:03:21;27;27;
55518;PMS5003;41724;51.176;-0.708;2023-04-24T00:05:48;24;24;
55518;PMS5003;41724;51.176;-0.708;2023-04-24T00:08:16;29;28;
55518;PMS5003;41724;51.176;-0.708;2023-04-24T00:10:43;23;23;
55518;PMS5003;41724;51.176;-0.708;2023-04-24T00:13:11;27;26;
55518;PMS5003;41724;51.176;-0.708;2023-04-24T00:15:38;31;28;
55518;PMS5003;41724;51.176;-0.708;2023-04-24T00:18:05;27;25;
55518;PMS5003;41724;51.176;-0.708;2023-04-24T00:20:31;21;21;
55518;PMS5003;41724;51.176;-0.708;2023-04-24T00:22:59;32;30;
55518;PMS5003;41724;51.176;-0.708;2023-04-24T00:25:26;20;20;
55518;PMS5003;41724;51.176;-0.708;2023-04-24T00:27:54;26;23;
55518;PMS5003;41724;51.176;-0.708;2023-04-24T00:30:21;22;22;
55518;PMS5003;41724;51.176;-0.708;2023-04-24T00:32:48;29;27;
55518;PMS5003;41724;51.176;-0.708;2023-04-24T00:35:15;25;25;
55518;PMS5003;41724;51.176;-0.708;2023-04-24T00:37:43;24;23;
55518;PMS5003;41724;51.176;-0.708;2023-04-24T00:40:10;29;25;
55518;PMS5003;41724;51.176;-0.708;2023-04-24T00:42:37;33;32;
55518;PMS5003;41724;51.176;-0.708;2023-04-24T00:45:05;31;30;
55518;PMS5003;41724;51.176;-0.708;2023-04-24T00:47:33;25;24;
55518;PMS5003;41724;51.176;-0.708;2023-04-24T00:50:01;24;24;
55518;PMS5003;41724;51.176;-0.708;2023-04-24T00:52:29;27;26;
55518;PMS5003;41724;51.176;-0.708;2023-04-24T00:54:56;26;25;
55518;PMS5003;41724;51.176;-0.708;2023-04-24T00:57:23;30;28;
55518;PMS5003;41724;51.176;-0.708;2023-04-24T00:59:51;33;32;
55518;PMS5003;41724;51.176;-0.708;2023-04-24T01:02:19;25;24;
55518;PMS5003;41724;51.176;-0.708;2023-04-24T01:04:48;31;31;
55518;PMS5003;41724;51.176;-0.708;2023-04-24T01:07:17;29;29;
55518;PMS5003;41724;51.176;-0.708;2023-04-24T01:09:46;28;25;
55518;PMS5003;41724;51.176;-0.708;2023-04-24T01:12:15;30;29;
55518;PMS5003;41724;51.176;-0.708;2023-04-24T01:14:41;28;28;
55518;PMS5003;41724;51.176;-0.708;2023-04-24T01:17:09;32;31;
55518;PMS5003;41724;51.176;-0.708;2023-04-24T01:19:36;25;25;
55518;PMS5003;41724;51.176;-0.708;2023-04-24T01:22:08;30;30;
55518;PMS5003;41724;51.176;-0.708;2023-04-24T01:24:37;28;25;
55518;PMS5003;41724;51.176;-0.708;2023-04-24T01:27:05;33;32;
55518;PMS5003;41724;51.176;-0.708;2023-04-24T01:29:32;35;35;
55518;PMS5003;41724;51.176;-0.708;2023-04-24T01:32:00;37;36;
55518;PMS5003;41724;51.176;-0.708;2023-04-24T01:34:27;30;30;
55518;PMS5003;41724;51.176;-0.708;2023-04-24T01:36:54;26;26;
55518;PMS5003;41724;51.176;-0.708;2023-04-24T01:39:21;30;29;
55518;PMS5003;41724;51.176;-0.708;2023-04-24T01:41:48;27;23;
55518;PMS5003;41724;51.176;-0.708;2023-04-24T01:44:16;29;29;
55518;PMS5003;41724;51.176;-0.708;2023-04-24T01:46:44;30;29;
55518;PMS5003;41724;51.176;-0.708;2023-04-24T01:49:11;28;28;
55518;PMS5003;41724;51.176;-0.708;2023-04-24T01:51:38;27;27;
55518;PMS5003;41724;51.176;-0.708;2023-04-24T01:54:05;23;21;
55518;PMS5003;41724;51.176;-0.708;2023-04-24T01:56:33;32;30;
55518;PMS5003;41724;51.176;-0.708;2023-04-24T01:59:01;27;27;
55518;PMS5003;41724;51.176;-0.708;2023-04-24T02:01:33;23;22;
55518;PMS5003;41724;51.176;-0.708;2023-04-24T02:04:01;29;29;
55518;PMS5003;41724;51.176;-0.708;2023-04-24T02:06:28;28;27;
55518;PMS5003;41724;51.176;-0.708;2023-04-24T02:08:55;29;28;
55518;PMS5003;41724;51.176;-0.708;2023-04-24T02:11:23;27;27;
55518;PMS5003;41724;51.176;-0.708;2023-04-24T02:13:50;24;23;
55518;PMS5003;41724;51.176;-0.708;2023-04-24T02:16:17;28;27;
55518;PMS5003;41724;51.176;-0.708;2023-04-24T02:18:44;25;24;
55518;PMS5003;41724;51.176;-0.708;2023-04-24T02:21:11;27;27;
55518;PMS5003;41724;51.176;-0.708;2023-04-24T02:23:38;26;25;
55518;PMS5003;41724;51.176;-0.708;2023-04-24T02:26:05;32;31;
55518;PMS5003;41724;51.176;-0.708;2023-04-24T02:28:33;24;24;
55518;PMS5003;41724;51.176;-0.708;2023-04-24T02:31:00;23;22;
55518;PMS5003;41724;51.176;-0.708;2023-04-24T02:33:27;22;22;
55518;PMS5003;41724;51.176;-0.708;2023-04-24T02:35:54;27;26;
55518;PMS5003;41724;51.176;-0.708;2023-04-24T02:38:21;23;23;
55518;PMS5003;41724;51.176;-0.708;2023-04-24T02:40:48;25;24;
55518;PMS5003;41724;51.176;-0.708;2023-04-24T02:43:15;30;28;
55518;PMS5003;41724;51.176;-0.708;2023-04-24T02:45:42;27;26;
55518;PMS5003;41724;51.176;-0.708;2023-04-24T02:48:09;24;21;
55518;PMS5003;41724;51.176;-0.708;2023-04-24T02:50:36;23;23;
55518;PMS5003;41724;51.176;-0.708;2023-04-24T02:53:03;24;24;
55518;PMS5003;41724;51.176;-0.708;2023-04-24T02:55:30;26;26;
55518;PMS5003;41724;51.176;-0.708;2023-04-24T02:57:57;27;26;
55518;PMS5003;41724;51.176;-0.708;2023-04-24T03:00:25;25;25;
55518;PMS5003;41724;51.176;-0.708;2023-04-24T03:02:51;22;22;
55518;PMS5003;41724;51.176;-0.708;2023-04-24T03:05:19;27;26;
55518;PMS5003;41724;51.176;-0.708;2023-04-24T03:07:46;24;24;
55518;PMS5003;41724;51.176;-0.708;2023-04-24T03:10:12;23;22;
55518;PMS5003;41724;51.176;-0.708;2023-04-24T03:12:40;26;24;
55518;PMS5003;41724;51.176;-0.708;2023-04-24T03:15:07;28;28;
55518;PMS5003;41724;51.176;-0.708;2023-04-24T03:17:35;27;24;
55518;PMS5003;41724;51.176;-0.708;2023-04-24T03:20:02;29;25;
55518;PMS5003;41724;51.176;-0.708;2023-04-24T03:22:29;29;28;
55518;PMS5003;41724;51.176;-0.708;2023-04-24T03:24:56;21;20;
55518;PMS5003;41724;51.176;-0.708;2023-04-24T03:27:24;23;22;
55518;PMS5003;41724;51.176;-0.708;2023-04-24T03:29:50;24;23;
55518;PMS5003;41724;51.176;-0.708;2023-04-24T03:32:18;27;26;
55518;PMS5003;41724;51.176;-0.708;2023-04-24T03:34:44;29;27;
55518;PMS5003;41724;51.176;-0.708;2023-04-24T03:37:11;27;26;
55518;PMS5003;41724;51.176;-0.708;2023-04-24T03:39:38;24;22;
55518;PMS5003;41724;51.176;-0.708;2023-04-24T03:42:05;22;22;
55518;PMS5003;41724;51.176;-0.708;2023-04-24T03:44:33;23;22;
55518;PMS5003;41724;51.176;-0.708;2023-04-24T03:47:00;30;29;
55518;PMS5003;41724;51.176;-0.708;2023-04-24T03:49:27;20;20;
55518;PMS5003;41724;51.176;-0.708;2023-04-24T03:51:55;25;24;
55518;PMS5003;41724;51.176;-0.708;2023-04-24T03:54:22;22;21;
55518;PMS5003;41724;51.176;-0.708;2023-04-24T03:56:49;24;23;
55518;PMS5003;41724;51.176;-0.708;2023-04-24T03:59:17;25;25;
55518;PMS5003;41724;51.176;-0.708;2023-04-24T04:01:44;24;24;
55518;PMS5003;41724;51.176;-0.708;2023-04-24T04:04:11;20;20;
55518;PMS5003;41724;51.176;-0.708;2023-04-24T04:06:39;25;25;
55518;PMS5003;41724;51.176;-0.708;2023-04-24T04:09:06;22;21;
55518;PMS5003;41724;51.176;-0.708;2023-04-24T04:11:33;24;24;
55518;PMS5003;41724;51.176;-0.708;2023-04-24T04:14:00;22;21;
55518;PMS5003;41724;51.176;-0.708;2023-04-24T04:16:26;24;24;
55518;PMS5003;41724;51.176;-0.708;2023-04-24T04:18:53;24;24;
55518;PMS5003;41724;51.176;-0.708;2023-04-24T04:21:21;24;24;
55518;PMS5003;41724;51.176;-0.708;2023-04-24T04:23:48;23;22;
55518;PMS5003;41724;51.176;-0.708;2023-04-24T04:26:15;21;20;
55518;PMS5003;41724;51.176;-0.708;2023-04-24T04:28:42;23;23;
55518;PMS5003;41724;51.176;-0.708;2023-04-24T04:31:09;26;26;
55518;PMS5003;41724;51.176;-0.708;2023-04-24T04:33:36;20;20;
55518;PMS5003;41724;51.176;-0.708;2023-04-24T04:36:04;21;21;
55518;PMS5003;41724;51.176;-0.708;2023-04-24T04:38:32;23;22;
55518;PMS5003;41724;51.176;-0.708;2023-04-24T04:40:59;24;23;
55518;PMS5003;41724;51.176;-0.708;2023-04-24T04:43:26;21;20;
55518;PMS5003;41724;51.176;-0.708;2023-04-24T04:45:53;21;21;
55518;PMS5003;41724;51.176;-0.708;2023-04-24T04:48:20;32;30;
55518;PMS5003;41724;51.176;-0.708;2023-04-24T04:50:48;22;21;
55518;PMS5003;41724;51.176;-0.708;2023-04-24T04:53:15;26;26;
55518;PMS5003;41724;51.176;-0.708;2023-04-24T04:55:42;29;28;
55518;PMS5003;41724;51.176;-0.708;2023-04-24T04:58:09;32;29;
55518;PMS5003;41724;51.176;-0.708;2023-04-24T05:00:36;19;17;
55518;PMS5003;41724;51.176;-0.708;2023-04-24T05:03:04;26;26;
55518;PMS5003;41724;51.176;-0.708;2023-04-24T05:05:31;21;21;
55518;PMS5003;41724;51.176;-0.708;2023-04-24T05:07:58;22;19;
55518;PMS5003;41724;51.176;-0.708;2023-04-24T05:10:25;16;16;
55518;PMS5003;41724;51.176;-0.708;2023-04-24T05:12:53;22;19;
55518;PMS5003;41724;51.176;-0.708;2023-04-24T05:15:20;25;24;
55518;PMS5003;41724;51.176;-0.708;2023-04-24T05:17:47;21;20;
55518;PMS5003;41724;51.176;-0.708;2023-04-24T05:20:14;25;25;
55518;PMS5003;41724;51.176;-0.708;2023-04-24T05:22:41;18;18;
55518;PMS5003;41724;51.176;-0.708;2023-04-24T05:25:08;21;21;
55518;PMS5003;41724;51.176;-0.708;2023-04-24T05:27:35;20;20;
55518;PMS5003;41724;51.176;-0.708;2023-04-24T05:30:02;21;21;
55518;PMS5003;41724;51.176;-0.708;2023-04-24T05:32:30;19;17;
55518;PMS5003;41724;51.176;-0.708;2023-04-24T05:34:57;23;22;
55518;PMS5003;41724;51.176;-0.708;2023-04-24T05:37:24;22;20;
55518;PMS5003;41724;51.176;-0.708;2023-04-24T05:39:52;22;22;
55518;PMS5003;41724;51.176;-0.708;2023-04-24T05:42:19;26;26;
55518;PMS5003;41724;51.176;-0.708;2023-04-24T05:44:46;24;23;
55518;PMS5003;41724;51.176;-0.708;2023-04-24T05:47:13;23;22;
55518;PMS5003;41724;51.176;-0.708;2023-04-24T05:49:40;25;24;
55518;PMS5003;41724;51.176;-0.708;2023-04-24T05:52:07;21;21;
55518;PMS5003;41724;51.176;-0.708;2023-04-24T05:54:34;25;24;
55518;PMS5003;41724;51.176;-0.708;2023-04-24T05:57:00;24;22;
55518;PMS5003;41724;51.176;-0.708;2023-04-24T05:59:28;30;29;
55518;PMS5003;41724;51.176;-0.708;2023-04-24T06:01:55;26;26;
55518;PMS5003;41724;51.176;-0.708;2023-04-24T06:04:22;24;24;
55518;PMS5003;41724;51.176;-0.708;2023-04-24T06:06:49;26;26;
55518;PMS5003;41724;51.176;-0.708;2023-04-24T06:09:16;23;23;
55518;PMS5003;41724;51.176;-0.708;2023-04-24T06:11:43;23;22;
55518;PMS5003;41724;51.176;-0.708;2023-04-24T06:14:10;27;26;
55518;PMS5003;41724;51.176;-0.708;2023-04-24T06:16:37;29;27;
55518;PMS5003;41724;51.176;-0.708;2023-04-24T06:19:04;29;28;
55518;PMS5003;41724;51.176;-0.708;2023-04-24T06:21:31;32;31;
55518;PMS5003;41724;51.176;-0.708;2023-04-24T06:23:58;29;29;
55518;PMS5003;41724;51.176;-0.708;2023-04-24T06:26:25;26;26;
55518;PMS5003;41724;51.176;-0.708;2023-04-24T06:28:52;27;26;
55518;PMS5003;41724;51.176;-0.708;2023-04-24T06:31:20;29;28;
55518;PMS5003;41724;51.176;-0.708;2023-04-24T06:33:47;34;32;
55518;PMS5003;41724;51.176;-0.708;2023-04-24T06:36:15;28;28;
55518;PMS5003;41724;51.176;-0.708;2023-04-24T06:38:42;22;22;
55518;PMS5003;41724;51.176;-0.708;2023-04-24T06:41:10;30;29;
55518;PMS5003;41724;51.176;-0.708;2023-04-24T06:43:36;23;22;
55518;PMS5003;41724;51.176;-0.708;2023-04-24T06:46:04;24;23;
55518;PMS5003;41724;51.176;-0.708;2023-04-24T06:48:31;25;25;
55518;PMS5003;41724;51.176;-0.708;2023-04-24T06:50:58;23;22;
55518;PMS5003;41724;51.176;-0.708;2023-04-24T06:53:25;17;17;
55518;PMS5003;41724;51.176;-0.708;2023-04-24T06:55:52;22;20;
55518;PMS5003;41724;51.176;-0.708;2023-04-24T06:58:19;20;20;
55518;PMS5003;41724;51.176;-0.708;2023-04-24T07:00:46;20;20;
55518;PMS5003;41724;51.176;-0.708;2023-04-24T07:03:13;22;21;
55518;PMS5003;41724;51.176;-0.708;2023-04-24T07:05:40;18;17;
55518;PMS5003;41724;51.176;-0.708;2023-04-24T07:08:08;21;21;
55518;PMS5003;41724;51.176;-0.708;2023-04-24T07:10:35;19;18;
55518;PMS5003;41724;51.176;-0.708;2023-04-24T07:13:04;22;20;
55518;PMS5003;41724;51.176;-0.708;2023-04-24T07:15:30;22;22;
55518;PMS5003;41724;51.176;-0.708;2023-04-24T07:17:58;21;21;
55518;PMS5003;41724;51.176;-0.708;2023-04-24T07:20:25;24;22;
55518;PMS5003;41724;51.176;-0.708;2023-04-24T07:22:52;26;25;
55518;PMS5003;41724;51.176;-0.708;2023-04-24T07:25:19;25;23;
55518;PMS5003;41724;51.176;-0.708;2023-04-24T07:27:47;19;17;
55518;PMS5003;41724;51.176;-0.708;2023-04-24T07:30:14;22;21;
55518;PMS5003;41724;51.176;-0.708;2023-04-24T07:32:44;26;24;
55518;PMS5003;41724;51.176;-0.708;2023-04-24T07:35:11;22;21;
55518;PMS5003;41724;51.176;-0.708;2023-04-24T07:37:38;22;22;
55518;PMS5003;41724;51.176;-0.708;2023-04-24T07:40:06;28;26;
55518;PMS5003;41724;51.176;-0.708;2023-04-24T07:42:33;25;25;
55518;PMS5003;41724;51.176;-0.708;2023-04-24T07:45:01;23;23;
55518;PMS5003;41724;51.176;-0.708;2023-04-24T07:47:29;22;22;
55518;PMS5003;41724;51.176;-0.708;2023-04-24T07:49:56;22;21;
55518;PMS5003;41724;51.176;-0.708;2023-04-24T07:52:23;22;21;
55518;PMS5003;41724;51.176;-0.708;2023-04-24T07:54:50;23;22;
55518;PMS5003;41724;51.176;-0.708;2023-04-24T07:57:17;27;25;
55518;PMS5003;41724;51.176;-0.708;2023-04-24T07:59:45;23;23;
55518;PMS5003;41724;51.176;-0.708;2023-04-24T08:02:12;23;23;
55518;PMS5003;41724;51.176;-0.708;2023-04-24T08:04:39;21;20;
55518;PMS5003;41724;51.176;-0.708;2023-04-24T08:07:06;20;20;
55518;PMS5003;41724;51.176;-0.708;2023-04-24T08:09:33;24;24;
55518;PMS5003;41724;51.176;-0.708;2023-04-24T08:12:06;21;21;
55518;PMS5003;41724;51.176;-0.708;2023-04-24T08:14:33;22;21;
55518;PMS5003;41724;51.176;-0.708;2023-04-24T08:17:00;17;17;
55518;PMS5003;41724;51.176;-0.708;2023-04-24T08:19:27;19;17;
55518;PMS5003;41724;51.176;-0.708;2023-04-24T08:22:00;19;19;
55518;PMS5003;41724;51.176;-0.708;2023-04-24T08:24:28;21;21;
55518;PMS5003;41724;51.176;-0.708;2023-04-24T08:26:55;20;19;
55518;PMS5003;41724;51.176;-0.708;2023-04-24T08:29:28;18;18;
55518;PMS5003;41724;51.176;-0.708;2023-04-24T08:31:55;19;18;
55518;PMS5003;41724;51.176;-0.708;2023-04-24T08:34:22;16;16;
55518;PMS5003;41724;51.176;-0.708;2023-04-24T08:36:49;19;17;
55518;PMS5003;41724;51.176;-0.708;2023-04-24T08:39:16;22;20;
55518;PMS5003;41724;51.176;-0.708;2023-04-24T08:41:44;22;22;
55518;PMS5003;41724;51.176;-0.708;2023-04-24T08:44:11;17;17;
55518;PMS5003;41724;51.176;-0.708;2023-04-24T08:46:39;19;19;
55518;PMS5003;41724;51.176;-0.708;2023-04-24T08:49:07;19;18;
55518;PMS5003;41724;51.176;-0.708;2023-04-24T08:51:34;21;19;
55518;PMS5003;41724;51.176;-0.708;2023-04-24T08:54:04;17;17;
55518;PMS5003;41724;51.176;-0.708;2023-04-24T08:56:32;17;16;
55518;PMS5003;41724;51.176;-0.708;2023-04-24T08:59:00;19;19;
55518;PMS5003;41724;51.176;-0.708;2023-04-24T09:01:29;21;18;
55518;PMS5003;41724;51.176;-0.708;2023-04-24T09:03:59;19;16;
55518;PMS5003;41724;51.176;-0.708;2023-04-24T09:06:28;22;21;
55518;PMS5003;41724;51.176;-0.708;2023-04-24T09:08:57;17;17;
55518;PMS5003;41724;51.176;-0.708;2023-04-24T09:11:26;17;17;
55518;PMS5003;41724;51.176;-0.708;2023-04-24T09:13:54;17;17;
55518;PMS5003;41724;51.176;-0.708;2023-04-24T09:16:23;18;17;
55518;PMS5003;41724;51.176;-0.708;2023-04-24T09:18:51;17;16;
55518;PMS5003;41724;51.176;-0.708;2023-04-24T09:21:20;15;15;
55518;PMS5003;41724;51.176;-0.708;2023-04-24T09:23:57;18;18;
55518;PMS5003;41724;51.176;-0.708;2023-04-24T09:26:24;17;17;
55518;PMS5003;41724;51.176;-0.708;2023-04-24T09:28:53;21;20;
55518;PMS5003;41724;51.176;-0.708;2023-04-24T09:31:20;24;23;
55518;PMS5003;41724;51.176;-0.708;2023-04-24T09:33:53;21;20;
55518;PMS5003;41724;51.176;-0.708;2023-04-24T09:36:26;19;18;
55518;PMS5003;41724;51.176;-0.708;2023-04-24T09:38:57;24;22;
55518;PMS5003;41724;51.176;-0.708;2023-04-24T09:41:25;21;20;
55518;PMS5003;41724;51.176;-0.708;2023-04-24T09:43:53;16;16;
55518;PMS5003;41724;51.176;-0.708;2023-04-24T09:46:29;17;16;
55518;PMS5003;41724;51.176;-0.708;2023-04-24T09:48:56;14;14;
55518;PMS5003;41724;51.176;-0.708;2023-04-24T09:51:33;19;18;
55518;PMS5003;41724;51.176;-0.708;2023-04-24T09:54:12;15;15;
55518;PMS5003;41724;51.176;-0.708;2023-04-24T09:56:42;14;13;
55518;PMS5003;41724;51.176;-0.708;2023-04-24T09:59:10;18;18;
55518;PMS5003;41724;51.176;-0.708;2023-04-24T10:01:37;20;20;
55518;PMS5003;41724;51.176;-0.708;2023-04-24T10:04:04;23;23;
55518;PMS5003;41724;51.176;-0.708;2023-04-24T10:06:33;14;14;
55518;PMS5003;41724;51.176;-0.708;2023-04-24T10:09:02;16;15;
55518;PMS5003;41724;51.176;-0.708;2023-04-24T10:11:29;15;15;
55518;PMS5003;41724;51.176;-0.708;2023-04-24T10:13:56;14;14;
55518;PMS5003;41724;51.176;-0.708;2023-04-24T10:16:26;11;9;
55518;PMS5003;41724;51.176;-0.708;2023-04-24T10:18:54;14;14;
55518;PMS5003;41724;51.176;-0.708;2023-04-24T10:21:25;13;13;
55518;PMS5003;41724;51.176;-0.708;2023-04-24T10:23:53;13;13;
55518;PMS5003;41724;51.176;-0.708;2023-04-24T10:26:21;22;21;
55518;PMS5003;41724;51.176;-0.708;2023-04-24T10:28:55;18;16;
55518;PMS5003;41724;51.176;-0.708;2023-04-24T10:31:24;15;15;
55518;PMS5003;41724;51.176;-0.708;2023-04-24T10:33:52;18;18;
55518;PMS5003;41724;51.176;-0.708;2023-04-24T10:36:25;14;13;
55518;PMS5003;41724;51.176;-0.708;2023-04-24T10:38:55;18;17;
55518;PMS5003;41724;51.176;-0.708;2023-04-24T10:41:25;13;13;
55518;PMS5003;41724;51.176;-0.708;2023-04-24T10:44:11;14;14;
55518;PMS5003;41724;51.176;-0.708;2023-04-24T10:46:42;15;14;
55518;PMS5003;41724;51.176;-0.708;2023-04-24T10:49:10;15;15;
55518;PMS5003;41724;51.176;-0.708;2023-04-24T10:51:48;14;14;
55518;PMS5003;41724;51.176;-0.708;2023-04-24T10:56:29;12;12;
55518;PMS5003;41724;51.176;-0.708;2023-04-24T10:58:59;13;12;
55518;PMS5003;41724;51.176;-0.708;2023-04-24T11:01:27;17;15;
55518;PMS5003;41724;51.176;-0.708;2023-04-24T11:03:56;15;15;
55518;PMS5003;41724;51.176;-0.708;2023-04-24T11:06:28;12;12;
55518;PMS5003;41724;51.176;-0.708;2023-04-24T11:08:59;14;13;
55518;PMS5003;41724;51.176;-0.708;2023-04-24T11:11:29;13;13;
55518;PMS5003;41724;51.176;-0.708;2023-04-24T11:14:04;12;12;
55518;PMS5003;41724;51.176;-0.708;2023-04-24T11:16:33;12;12;
55518;PMS5003;41724;51.176;-0.708;2023-04-24T11:19:09;14;14;
55518;PMS5003;41724;51.176;-0.708;2023-04-24T11:21:45;12;12;
55518;PMS5003;41724;51.176;-0.708;2023-04-24T11:24:31;12;12;
55518;PMS5003;41724;51.176;-0.708;2023-04-24T11:27:12;11;11;
55518;PMS5003;41724;51.176;-0.708;2023-04-24T11:29:43;14;14;
55518;PMS5003;41724;51.176;-0.708;2023-04-24T11:32:17;12;12;
55518;PMS5003;41724;51.176;-0.708;2023-04-24T11:34:51;12;12;
55518;PMS5003;41724;51.176;-0.708;2023-04-24T11:37:24;14;14;
55518;PMS5003;41724;51.176;-0.708;2023-04-24T11:39:54;10;10;
55518;PMS5003;41724;51.176;-0.708;2023-04-24T11:42:27;12;12;
55518;PMS5003;41724;51.176;-0.708;2023-04-24T11:44:55;12;11;
55518;PMS5003;41724;51.176;-0.708;2023-04-24T11:47:28;10;10;
55518;PMS5003;41724;51.176;-0.708;2023-04-24T11:49:56;12;12;
55518;PMS5003;41724;51.176;-0.708;2023-04-24T11:52:24;9;9;
55518;PMS5003;41724;51.176;-0.708;2023-04-24T11:54:57;9;9;
55518;PMS5003;41724;51.176;-0.708;2023-04-24T11:57:30;14;14;
55518;PMS5003;41724;51.176;-0.708;2023-04-24T11:59:58;13;13;
55518;PMS5003;41724;51.176;-0.708;2023-04-24T12:02:25;15;13;
55518;PMS5003;41724;51.176;-0.708;2023-04-24T12:04:53;12;11;
55518;PMS5003;41724;51.176;-0.708;2023-04-24T12:07:22;12;12;
55518;PMS5003;41724;51.176;-0.708;2023-04-24T12:09:55;14;14;
55518;PMS5003;41724;51.176;-0.708;2023-04-24T12:12:24;12;11;
55518;PMS5003;41724;51.176;-0.708;2023-04-24T12:14:53;11;11;
55518;PMS5003;41724;51.176;-0.708;2023-04-24T12:17:24;13;13;
55518;PMS5003;41724;51.176;-0.708;2023-04-24T12:19:56;12;12;
55518;PMS5003;41724;51.176;-0.708;2023-04-24T12:22:25;11;11;
55518;PMS5003;41724;51.176;-0.708;2023-04-24T12:24:56;10;10;
55518;PMS5003;41724;51.176;-0.708;2023-04-24T12:27:32;11;11;
55518;PMS5003;41724;51.176;-0.708;2023-04-24T12:30:00;13;13;
55518;PMS5003;41724;51.176;-0.708;2023-04-24T12:32:28;10;10;
55518;PMS5003;41724;51.176;-0.708;2023-04-24T12:34:55;11;10;
55518;PMS5003;41724;51.176;-0.708;2023-04-24T12:37:23;10;10;
55518;PMS5003;41724;51.176;-0.708;2023-04-24T12:39:59;12;11;
55518;PMS5003;41724;51.176;-0.708;2023-04-24T12:42:27;13;13;
55518;PMS5003;41724;51.176;-0.708;2023-04-24T12:45:01;15;13;
55518;PMS5003;41724;51.176;-0.708;2023-04-24T12:47:30;11;11;
55518;PMS5003;41724;51.176;-0.708;2023-04-24T12:49:58;12;12;
55518;PMS5003;41724;51.176;-0.708;2023-04-24T12:52:27;11;10;
55518;PMS5003;41724;51.176;-0.708;2023-04-24T12:54:56;10;10;
55518;PMS5003;41724;51.176;-0.708;2023-04-24T12:57:24;11;11;
55518;PMS5003;41724;51.176;-0.708;2023-04-24T12:59:53;11;11;
55518;PMS5003;41724;51.176;-0.708;2023-04-24T13:02:22;12;11;
55518;PMS5003;41724;51.176;-0.708;2023-04-24T13:04:49;9;9;
55518;PMS5003;41724;51.176;-0.708;2023-04-24T13:07:17;10;10;
55518;PMS5003;41724;51.176;-0.708;2023-04-24T13:09:44;10;10;
55518;PMS5003;41724;51.176;-0.708;2023-04-24T13:12:12;11;11;
55518;PMS5003;41724;51.176;-0.708;2023-04-24T13:14:40;13;13;
55518;PMS5003;41724;51.176;-0.708;2023-04-24T13:17:07;12;12;
55518;PMS5003;41724;51.176;-0.708;2023-04-24T13:19:35;12;12;
55518;PMS5003;41724;51.176;-0.708;2023-04-24T13:22:03;12;12;
55518;PMS5003;41724;51.176;-0.708;2023-04-24T13:24:30;11;11;
55518;PMS5003;41724;51.176;-0.708;2023-04-24T13:26:58;9;9;
55518;PMS5003;41724;51.176;-0.708;2023-04-24T13:29:25;7;7;
55518;PMS5003;41724;51.176;-0.708;2023-04-24T13:31:53;6;6;
55518;PMS5003;41724;51.176;-0.708;2023-04-24T13:34:21;7;7;
55518;PMS5003;41724;51.176;-0.708;2023-04-24T13:36:49;8;8;
55518;PMS5003;41724;51.176;-0.708;2023-04-24T13:39:16;6;6;
55518;PMS5003;41724;51.176;-0.708;2023-04-24T13:41:43;6;6;
55518;PMS5003;41724;51.176;-0.708;2023-04-24T13:44:10;6;5;
55518;PMS5003;41724;51.176;-0.708;2023-04-24T13:46:38;6;6;
55518;PMS5003;41724;51.176;-0.708;2023-04-24T13:49:04;7;7;
55518;PMS5003;41724;51.176;-0.708;2023-04-24T13:51:32;7;6;
55518;PMS5003;41724;51.176;-0.708;2023-04-24T13:53:59;9;9;
55518;PMS5003;41724;51.176;-0.708;2023-04-24T13:56:26;6;6;
55518;PMS5003;41724;51.176;-0.708;2023-04-24T13:58:53;8;8;
55518;PMS5003;41724;51.176;-0.708;2023-04-24T14:01:20;6;6;
55518;PMS5003;41724;51.176;-0.708;2023-04-24T14:03:47;10;10;
55518;PMS5003;41724;51.176;-0.708;2023-04-24T14:06:14;8;7;
55518;PMS5003;41724;51.176;-0.708;2023-04-24T14:08:41;10;9;
55518;PMS5003;41724;51.176;-0.708;2023-04-24T14:11:08;9;8;
55518;PMS5003;41724;51.176;-0.708;2023-04-24T14:13:35;8;8;
55518;PMS5003;41724;51.176;-0.708;2023-04-24T14:16:03;9;9;
55518;PMS5003;41724;51.176;-0.708;2023-04-24T14:18:31;10;9;
55518;PMS5003;41724;51.176;-0.708;2023-04-24T14:20:58;10;10;
55518;PMS5003;41724;51.176;-0.708;2023-04-24T14:23:25;12;11;
55518;PMS5003;41724;51.176;-0.708;2023-04-24T14:25:53;11;11;
55518;PMS5003;41724;51.176;-0.708;2023-04-24T14:28:20;12;12;
55518;PMS5003;41724;51.176;-0.708;2023-04-24T14:30:47;16;15;
55518;PMS5003;41724;51.176;-0.708;2023-04-24T14:33:14;20;17;
55518;PMS5003;41724;51.176;-0.708;2023-04-24T14:35:41;26;25;
55518;PMS5003;41724;51.176;-0.708;2023-04-24T14:38:08;43;38;
55518;PMS5003;41724;51.176;-0.708;2023-04-24T14:40:36;26;23;
55518;PMS5003;41724;51.176;-0.708;2023-04-24T14:43:04;31;31;
55518;PMS5003;41724;51.176;-0.708;2023-04-24T14:45:30;16;15;
55518;PMS5003;41724;51.176;-0.708;2023-04-24T14:47:57;23;21;
55518;PMS5003;41724;51.176;-0.708;2023-04-24T14:50:24;20;18;
55518;PMS5003;41724;51.176;-0.708;2023-04-24T14:52:51;7;7;
55518;PMS5003;41724;51.176;-0.708;2023-04-24T14:55:23;6;6;
55518;PMS5003;41724;51.176;-0.708;2023-04-24T14:57:51;6;5;
55518;PMS5003;41724;51.176;-0.708;2023-04-24T15:00:19;11;10;
55518;PMS5003;41724;51.176;-0.708;2023-04-24T15:02:47;12;10;
55518;PMS5003;41724;51.176;-0.708;2023-04-24T15:05:14;9;8;
55518;PMS5003;41724;51.176;-0.708;2023-04-24T15:07:41;5;4;
55518;PMS5003;41724;51.176;-0.708;2023-04-24T15:10:08;9;8;
55518;PMS5003;41724;51.176;-0.708;2023-04-24T15:12:35;8;6;
55518;PMS5003;41724;51.176;-0.708;2023-04-24T15:15:03;9;9;
55518;PMS5003;41724;51.176;-0.708;2023-04-24T15:17:36;7;7;
55518;PMS5003;41724;51.176;-0.708;2023-04-24T15:20:04;7;6;
55518;PMS5003;41724;51.176;-0.708;2023-04-24T15:22:34;6;6;
55518;PMS5003;41724;51.176;-0.708;2023-04-24T15:25:02;8;8;
55518;PMS5003;41724;51.176;-0.708;2023-04-24T15:27:45;8;8;
55518;PMS5003;41724;51.176;-0.708;2023-04-24T15:30:13;6;6;
55518;PMS5003;41724;51.176;-0.708;2023-04-24T15:32:41;5;5;
55518;PMS5003;41724;51.176;-0.708;2023-04-24T15:35:08;6;6;
55518;PMS5003;41724;51.176;-0.708;2023-04-24T15:37:36;6;6;
55518;PMS5003;41724;51.176;-0.708;2023-04-24T15:40:03;6;6;
55518;PMS5003;41724;51.176;-0.708;2023-04-24T15:42:31;8;8;
55518;PMS5003;41724;51.176;-0.708;2023-04-24T15:44:58;10;10;
55518;PMS5003;41724;51.176;-0.708;2023-04-24T15:47:26;11;9;
55518;PMS5003;41724;51.176;-0.708;2023-04-24T15:49:53;7;7;
55518;PMS5003;41724;51.176;-0.708;2023-04-24T15:52:20;7;7;
55518;PMS5003;41724;51.176;-0.708;2023-04-24T15:54:48;7;7;
55518;PMS5003;41724;51.176;-0.708;2023-04-24T15:57:25;6;6;
55518;PMS5003;41724;51.176;-0.708;2023-04-24T15:59:53;5;4;
55518;PMS5003;41724;51.176;-0.708;2023-04-24T16:02:25;6;6;
55518;PMS5003;41724;51.176;-0.708;2023-04-24T16:04:52;7;7;
55518;PMS5003;41724;51.176;-0.708;2023-04-24T16:07:25;6;5;
55518;PMS5003;41724;51.176;-0.708;2023-04-24T16:09:57;6;6;
55518;PMS5003;41724;51.176;-0.708;2023-04-24T16:12:24;6;6;
55518;PMS5003;41724;51.176;-0.708;2023-04-24T16:14:51;5;5;